Flight Track Log - Related Links

Times and Time Zones

All times are in EDT time to prevent confusion due to time zone crossing. See the SWA3675 flight status page for this flight to view local times or setup timezone preferences in your user account.

Time Position Orientation Groundspeed Altitude Reporting Facility
EDT Latitude Longitude Course Direction KTS MPH feet Rate Location/Type
Sun 06:04:50 PM 42.7297 -73.8081 223° Southwest 153 176 1,400  Level Boston Center
Sun 06:06:00 PM 42.6205 -73.7667 180° South  Level FlightAware Approximate
Sun 06:06:50 PM 42.6664 -73.8886 180° South 220 253 6,200  Level Boston Center
Sun 06:07:50 PM 42.6631 -73.9761 267° West 220 253 9,500 3,350 Climbing Boston Center
Sun 06:08:50 PM 42.6578 -74.0633 265° West 231 266 12,900 2,400 Climbing Boston Center
Sun 06:09:50 PM 42.6125 -74.1611 238° Southwest 256 295 14,300 2,200 Climbing Boston Center
Sun 06:10:50 PM 42.5339 -74.1250 161° South 277 319 17,300 2,900 Climbing Boston Center
Sun 06:11:50 PM 42.4450 -74.0664 154° Southeast 305 351 20,100 2,750 Climbing Boston Center
Sun 06:12:50 PM 42.3500 -74.0019 153° Southeast 347 399 22,800 1,450 Climbing Boston Center
Sun 06:13:50 PM 42.2489 -73.9322 153° Southeast 388 447 23,000 150 Climbing Boston Center
Sun 06:14:50 PM 42.1497 -73.8628 153° Southeast 405 466 23,100 1,250 Climbing Boston Center
Sun 06:15:50 PM 42.0483 -73.7961 154° Southeast 405 466 25,500 1,633 Climbing Boston Center
Sun 06:17:00 PM 41.9582 -73.8913 171° South  Level Estimated
Sun 06:17:50 PM 41.8375 -73.6467 171° South 420 483 28,000  Level Boston Center
Sun 06:18:50 PM 41.7150 -73.6025 165° South 439 505 28,000  Level Boston Center
Sun 06:20:29 PM 41.5369 -73.7283 208° Southwest 435 501 28,000  Level New York Center
Sun 06:22:00 PM 41.4011 -73.6469 156° South  Level FlightAware Approximate
Sun 06:22:30 PM 41.3003 -73.9442 156° South 488 562 28,000  Level New York Center
Sun 06:23:30 PM 41.1911 -74.0439 215° Southwest 496 571 27,800 -1,000 Descending New York Center
Sun 06:24:30 PM 41.0781 -74.1458 214° Southwest 501 577 26,000 -885 Descending New York Center
Sun 06:25:32 PM 40.9819 -74.2289 213° Southwest 490 564 26,000  Level New York Center
Sun 06:26:29 PM 40.8811 -74.3225 215° Southwest 472 543 26,000  Level New York Center
Sun 06:27:30 PM 40.7781 -74.4239 217° Southwest 467 537 26,000  Level New York Center
Sun 06:28:32 PM 40.6989 -74.5511 231° Southwest 445 512 26,000 -678 Level New York Center
Sun 06:30:00 PM 40.6014 -74.6871 225° Southwest  Level FlightAware Approximate
Sun 06:31:29 PM 40.5161 -74.9669 225° Southwest 443 510 23,300  Level New York Center
Sun 06:32:30 PM 40.4650 -75.1111 245° Southwest 443 510 22,300 -992 Descending New York Center
Sun 06:33:30 PM 40.3978 -75.2406 236° Southwest 436 502 21,300 -992 Descending New York Center
Sun 06:34:31 PM 40.3028 -75.3242 214° Southwest 419 482 20,300 -992 Descending New York Center
Sun 06:35:31 PM 40.2100 -75.4106 215° Southwest 414 476 19,300 -1,008 Descending New York Center
Sun 06:36:30 PM 40.1147 -75.4936 214° Southwest 420 483 18,300 -655 Descending New York Center
Sun 06:37:30 PM 40.0175 -75.5792 214° Southwest 403 464 18,000 -446 Descending New York Center
Sun 06:38:31 PM 39.9394 -75.6525 216° Southwest 388 447 17,400 -807 Descending New York Center
Sun 06:39:29 PM 39.8658 -75.7717 231° Southwest 382 440 16,400 -1,000 Descending New York Center
Sun 06:40:31 PM 39.8114 -75.8731 235° Southwest 388 447 15,400 -1,172 Descending New York Center
Sun 06:42:18 PM 39.7000 -76.0833 235° Southwest 368 423 13,100 -1,257 Descending Potomac TRACON
Sun 06:43:18 PM 39.6500 -76.2000 241° Southwest 352 405 11,900 -1,000 Descending Potomac TRACON
Sun 06:44:18 PM 39.6000 -76.3000 237° Southwest 311 358 11,100 -1,350 Descending Potomac TRACON
Sun 06:46:00 PM 39.4631 -76.4194 207° Southwest  Level Estimated
Sun 06:47:18 PM 39.5667 -76.6000 207° Southwest 286 329 6,500  Level Potomac TRACON
Sun 06:48:18 PM 39.5333 -76.7000 247° West 277 319 5,100 -1,316 Descending Potomac TRACON
Sun 06:49:12 PM 39.5167 -76.7833 255° West 276 318 4,000 -550 Descending Potomac TRACON
Sun 06:50:18 PM 39.4833 -76.8667 243° Southwest 237 273 4,000  Level Potomac TRACON
Sun 06:51:18 PM 39.4167 -76.8833 191° South 219 252 4,000  Level Potomac TRACON
Sun 06:52:19 PM 39.3667 -76.9000 194° South 216 249 4,000  Level Potomac TRACON
Sun 06:53:19 PM 39.3000 -76.9000 180° South 219 252 4,000  Level Potomac TRACON
Sun 06:54:19 PM 39.2500 -76.8833 166° South 203 234 4,000 -500 Level Potomac TRACON
Sun 06:55:19 PM 39.2167 -76.8500 142° Southeast 165 190 3,000 -1,000 Descending Potomac TRACON
Sun 06:56:19 PM 39.1833 -76.8167 142° Southeast 162 186 2,000 -900 Descending Potomac TRACON
Sun 06:57:19 PM 39.1833 -76.7500 90° East 140 161 1,200 -800 Descending Potomac TRACON
Sun 06:59:00 PM 39.1667 -76.6667 270° West  Level FlightAware Approximate
Sun 07:06:00 PM 39.1754 -76.6683 270° West  Level Estimated
Sun 07:07:00 PM 39.1754 -76.6683 270° West  Level Estimated
Sun 07:08:00 PM 39.1754 -76.6683 270° West  Level Estimated
Sun 07:09:00 PM 39.1754 -76.6683 270° West  Level Estimated
Sun 07:10:00 PM 39.1754 -76.6683 270° West  Level Estimated
Sun 07:11:00 PM 39.1754 -76.6683 270° West  Level Estimated

Login

Don't have an account? Register now (free) for customized features, flight alerts, and more!